sensor_id;sensor_type;location;lat;lon;timestamp;P1;durP1;ratioP1;P2;durP2;ratioP2
1376;SDS011;682;52.502;13.488;2023-03-01T00:01:42;27.30;;;16.63;;
1376;SDS011;682;52.502;13.488;2023-03-01T00:04:09;23.33;;;15.98;;
1376;SDS011;682;52.502;13.488;2023-03-01T00:06:36;24.35;;;15.75;;
1376;SDS011;682;52.502;13.488;2023-03-01T00:09:05;25.55;;;14.63;;
1376;SDS011;682;52.502;13.488;2023-03-01T00:11:32;21.50;;;14.35;;
1376;SDS011;682;52.502;13.488;2023-03-01T00:14:01;21.92;;;12.88;;
1376;SDS011;682;52.502;13.488;2023-03-01T00:16:32;24.67;;;15.05;;
1376;SDS011;682;52.502;13.488;2023-03-01T00:19:02;25.92;;;14.18;;
1376;SDS011;682;52.502;13.488;2023-03-01T00:21:29;24.20;;;15.70;;
1376;SDS011;682;52.502;13.488;2023-03-01T00:23:56;24.77;;;15.57;;
1376;SDS011;682;52.502;13.488;2023-03-01T00:26:23;26.42;;;14.40;;
1376;SDS011;682;52.502;13.488;2023-03-01T00:28:52;21.00;;;14.23;;
1376;SDS011;682;52.502;13.488;2023-03-01T00:31:20;23.30;;;15.30;;
1376;SDS011;682;52.502;13.488;2023-03-01T00:33:52;22.15;;;15.30;;
1376;SDS011;682;52.502;13.488;2023-03-01T00:36:24;21.67;;;13.05;;
1376;SDS011;682;52.502;13.488;2023-03-01T00:38:52;23.52;;;15.18;;
1376;SDS011;682;52.502;13.488;2023-03-01T00:41:20;24.23;;;15.27;;
1376;SDS011;682;52.502;13.488;2023-03-01T00:43:48;23.08;;;14.20;;
1376;SDS011;682;52.502;13.488;2023-03-01T00:46:17;19.90;;;13.93;;
1376;SDS011;682;52.502;13.488;2023-03-01T00:48:49;26.48;;;13.98;;
1376;SDS011;682;52.502;13.488;2023-03-01T00:51:17;22.85;;;15.73;;
1376;SDS011;682;52.502;13.488;2023-03-01T00:53:49;24.40;;;14.48;;
1376;SDS011;682;52.502;13.488;2023-03-01T00:56:19;20.42;;;14.43;;
1376;SDS011;682;52.502;13.488;2023-03-01T00:58:47;22.00;;;14.07;;
1376;SDS011;682;52.502;13.488;2023-03-01T01:01:18;21.65;;;14.40;;
1376;SDS011;682;52.502;13.488;2023-03-01T01:03:47;24.05;;;14.27;;
1376;SDS011;682;52.502;13.488;2023-03-01T01:06:16;22.33;;;15.60;;
1376;SDS011;682;52.502;13.488;2023-03-01T01:08:44;24.40;;;15.77;;
1376;SDS011;682;52.502;13.488;2023-03-01T01:11:13;24.88;;;16.08;;
1376;SDS011;682;52.502;13.488;2023-03-01T01:13:40;22.67;;;13.75;;
1376;SDS011;682;52.502;13.488;2023-03-01T01:16:08;26.45;;;15.23;;
1376;SDS011;682;52.502;13.488;2023-03-01T01:18:35;25.02;;;16.23;;
1376;SDS011;682;52.502;13.488;2023-03-01T01:21:03;23.65;;;15.50;;
1376;SDS011;682;52.502;13.488;2023-03-01T01:23:32;24.98;;;16.08;;
1376;SDS011;682;52.502;13.488;2023-03-01T01:26:02;23.73;;;15.27;;
1376;SDS011;682;52.502;13.488;2023-03-01T01:28:36;23.38;;;14.05;;
1376;SDS011;682;52.502;13.488;2023-03-01T01:31:05;24.15;;;14.95;;
1376;SDS011;682;52.502;13.488;2023-03-01T01:33:32;22.42;;;16.27;;
1376;SDS011;682;52.502;13.488;2023-03-01T01:36:03;23.60;;;16.05;;
1376;SDS011;682;52.502;13.488;2023-03-01T01:38:32;28.67;;;15.32;;
1376;SDS011;682;52.502;13.488;2023-03-01T01:40:59;23.20;;;16.52;;
1376;SDS011;682;52.502;13.488;2023-03-01T01:43:27;21.95;;;14.75;;
1376;SDS011;682;52.502;13.488;2023-03-01T01:45:57;21.52;;;15.13;;
1376;SDS011;682;52.502;13.488;2023-03-01T01:48:28;25.67;;;15.95;;
1376;SDS011;682;52.502;13.488;2023-03-01T01:51:09;24.40;;;14.82;;
1376;SDS011;682;52.502;13.488;2023-03-01T01:53:55;22.15;;;15.45;;
1376;SDS011;682;52.502;13.488;2023-03-01T01:56:27;24.17;;;15.50;;
1376;SDS011;682;52.502;13.488;2023-03-01T01:58:56;24.63;;;16.00;;
1376;SDS011;682;52.502;13.488;2023-03-01T02:01:26;21.38;;;14.98;;
1376;SDS011;682;52.502;13.488;2023-03-01T02:03:54;22.13;;;14.57;;
1376;SDS011;682;52.502;13.488;2023-03-01T02:06:22;28.45;;;16.45;;
1376;SDS011;682;52.502;13.488;2023-03-01T02:08:55;25.70;;;16.00;;
1376;SDS011;682;52.502;13.488;2023-03-01T02:11:26;20.20;;;14.45;;
1376;SDS011;682;52.502;13.488;2023-03-01T02:13:57;23.50;;;16.13;;
1376;SDS011;682;52.502;13.488;2023-03-01T02:16:28;23.77;;;15.50;;
1376;SDS011;682;52.502;13.488;2023-03-01T02:18:56;23.50;;;16.20;;
1376;SDS011;682;52.502;13.488;2023-03-01T02:21:28;24.23;;;15.00;;
1376;SDS011;682;52.502;13.488;2023-03-01T02:24:05;18.33;;;13.50;;
1376;SDS011;682;52.502;13.488;2023-03-01T02:26:45;23.13;;;14.65;;
1376;SDS011;682;52.502;13.488;2023-03-01T02:29:16;19.70;;;14.25;;
1376;SDS011;682;52.502;13.488;2023-03-01T02:31:43;24.25;;;15.40;;
1376;SDS011;682;52.502;13.488;2023-03-01T02:34:11;24.10;;;15.52;;
1376;SDS011;682;52.502;13.488;2023-03-01T02:36:40;25.10;;;15.40;;
1376;SDS011;682;52.502;13.488;2023-03-01T02:39:13;27.80;;;15.32;;
1376;SDS011;682;52.502;13.488;2023-03-01T02:41:47;25.80;;;15.85;;
1376;SDS011;682;52.502;13.488;2023-03-01T02:44:20;25.20;;;18.05;;
1376;SDS011;682;52.502;13.488;2023-03-01T02:46:49;33.25;;;22.55;;
1376;SDS011;682;52.502;13.488;2023-03-01T02:49:20;30.70;;;20.80;;
1376;SDS011;682;52.502;13.488;2023-03-01T02:51:55;31.42;;;21.05;;
1376;SDS011;682;52.502;13.488;2023-03-01T02:54:34;31.13;;;20.33;;
1376;SDS011;682;52.502;13.488;2023-03-01T02:57:11;29.30;;;18.25;;
1376;SDS011;682;52.502;13.488;2023-03-01T02:59:40;23.15;;;17.00;;
1376;SDS011;682;52.502;13.488;2023-03-01T03:02:18;22.85;;;14.82;;
1376;SDS011;682;52.502;13.488;2023-03-01T03:05:02;22.50;;;14.52;;
1376;SDS011;682;52.502;13.488;2023-03-01T03:07:33;23.27;;;14.95;;
1376;SDS011;682;52.502;13.488;2023-03-01T03:10:01;20.85;;;14.93;;
1376;SDS011;682;52.502;13.488;2023-03-01T03:12:29;25.90;;;14.38;;
1376;SDS011;682;52.502;13.488;2023-03-01T03:14:58;21.83;;;15.43;;
1376;SDS011;682;52.502;13.488;2023-03-01T03:17:25;25.27;;;16.02;;
1376;SDS011;682;52.502;13.488;2023-03-01T03:19:52;25.17;;;17.48;;
1376;SDS011;682;52.502;13.488;2023-03-01T03:22:19;27.38;;;19.10;;
1376;SDS011;682;52.502;13.488;2023-03-01T03:24:46;27.45;;;20.02;;
1376;SDS011;682;52.502;13.488;2023-03-01T03:27:14;30.55;;;20.92;;
1376;SDS011;682;52.502;13.488;2023-03-01T03:29:41;26.60;;;20.73;;
1376;SDS011;682;52.502;13.488;2023-03-01T03:32:11;31.40;;;20.85;;
1376;SDS011;682;52.502;13.488;2023-03-01T03:34:38;29.70;;;18.40;;
1376;SDS011;682;52.502;13.488;2023-03-01T03:37:06;31.27;;;20.10;;
1376;SDS011;682;52.502;13.488;2023-03-01T03:39:55;28.83;;;20.38;;
1376;SDS011;682;52.502;13.488;2023-03-01T03:42:22;26.95;;;18.23;;
1376;SDS011;682;52.502;13.488;2023-03-01T03:44:49;27.80;;;19.70;;
1376;SDS011;682;52.502;13.488;2023-03-01T03:47:18;23.55;;;16.98;;
1376;SDS011;682;52.502;13.488;2023-03-01T03:49:45;25.27;;;16.95;;
1376;SDS011;682;52.502;13.488;2023-03-01T03:52:12;27.30;;;19.00;;
1376;SDS011;682;52.502;13.488;2023-03-01T03:54:39;28.48;;;20.45;;
1376;SDS011;682;52.502;13.488;2023-03-01T03:57:06;29.75;;;18.38;;
1376;SDS011;682;52.502;13.488;2023-03-01T03:59:33;25.75;;;17.88;;
1376;SDS011;682;52.502;13.488;2023-03-01T04:02:02;24.60;;;19.23;;
1376;SDS011;682;52.502;13.488;2023-03-01T04:04:30;30.52;;;21.45;;
1376;SDS011;682;52.502;13.488;2023-03-01T04:07:03;28.38;;;19.20;;
1376;SDS011;682;52.502;13.488;2023-03-01T04:09:30;25.40;;;18.75;;
1376;SDS011;682;52.502;13.488;2023-03-01T04:11:57;26.73;;;20.05;;
1376;SDS011;682;52.502;13.488;2023-03-01T04:14:25;28.60;;;20.13;;
1376;SDS011;682;52.502;13.488;2023-03-01T04:16:53;27.58;;;19.58;;
1376;SDS011;682;52.502;13.488;2023-03-01T04:19:20;26.80;;;18.73;;
1376;SDS011;682;52.502;13.488;2023-03-01T04:21:53;26.48;;;20.40;;
1376;SDS011;682;52.502;13.488;2023-03-01T04:24:20;29.35;;;21.38;;
1376;SDS011;682;52.502;13.488;2023-03-01T04:26:47;28.17;;;19.92;;
1376;SDS011;682;52.502;13.488;2023-03-01T04:29:14;22.40;;;16.52;;
1376;SDS011;682;52.502;13.488;2023-03-01T04:31:41;25.15;;;16.13;;
1376;SDS011;682;52.502;13.488;2023-03-01T04:34:08;25.27;;;18.90;;
1376;SDS011;682;52.502;13.488;2023-03-01T04:36:36;29.00;;;19.40;;
1376;SDS011;682;52.502;13.488;2023-03-01T04:39:04;26.95;;;17.85;;
1376;SDS011;682;52.502;13.488;2023-03-01T04:41:37;25.00;;;18.65;;
1376;SDS011;682;52.502;13.488;2023-03-01T04:44:08;20.88;;;16.02;;
1376;SDS011;682;52.502;13.488;2023-03-01T04:46:35;25.95;;;17.05;;
1376;SDS011;682;52.502;13.488;2023-03-01T04:49:03;27.83;;;18.30;;
1376;SDS011;682;52.502;13.488;2023-03-01T04:51:30;22.90;;;16.67;;
1376;SDS011;682;52.502;13.488;2023-03-01T04:53:59;24.67;;;17.83;;
1376;SDS011;682;52.502;13.488;2023-03-01T04:56:27;24.63;;;17.42;;
1376;SDS011;682;52.502;13.488;2023-03-01T04:58:57;27.35;;;19.10;;
1376;SDS011;682;52.502;13.488;2023-03-01T05:01:27;26.48;;;18.10;;
1376;SDS011;682;52.502;13.488;2023-03-01T05:03:54;26.55;;;18.20;;
1376;SDS011;682;52.502;13.488;2023-03-01T05:06:21;25.90;;;18.23;;
1376;SDS011;682;52.502;13.488;2023-03-01T05:08:48;23.33;;;18.02;;
1376;SDS011;682;52.502;13.488;2023-03-01T05:11:15;30.20;;;19.70;;
1376;SDS011;682;52.502;13.488;2023-03-01T05:13:45;27.70;;;18.70;;
1376;SDS011;682;52.502;13.488;2023-03-01T05:16:12;27.20;;;19.33;;
1376;SDS011;682;52.502;13.488;2023-03-01T05:18:39;26.95;;;19.17;;
1376;SDS011;682;52.502;13.488;2023-03-01T05:21:08;24.88;;;19.35;;
1376;SDS011;682;52.502;13.488;2023-03-01T05:23:40;28.13;;;18.65;;
1376;SDS011;682;52.502;13.488;2023-03-01T05:26:08;23.35;;;17.55;;
1376;SDS011;682;52.502;13.488;2023-03-01T05:28:38;26.83;;;18.23;;
1376;SDS011;682;52.502;13.488;2023-03-01T05:31:07;24.17;;;18.42;;
1376;SDS011;682;52.502;13.488;2023-03-01T05:33:35;30.17;;;19.13;;
1376;SDS011;682;52.502;13.488;2023-03-01T05:36:03;63.03;;;34.95;;
1376;SDS011;682;52.502;13.488;2023-03-01T05:38:32;34.35;;;23.02;;
1376;SDS011;682;52.502;13.488;2023-03-01T05:41:01;23.25;;;17.67;;
1376;SDS011;682;52.502;13.488;2023-03-01T05:43:29;24.92;;;16.05;;
1376;SDS011;682;52.502;13.488;2023-03-01T05:45:59;24.92;;;17.33;;
1376;SDS011;682;52.502;13.488;2023-03-01T05:48:28;30.73;;;18.00;;
1376;SDS011;682;52.502;13.488;2023-03-01T05:50:58;26.15;;;16.90;;
1376;SDS011;682;52.502;13.488;2023-03-01T05:53:29;27.42;;;17.33;;
1376;SDS011;682;52.502;13.488;2023-03-01T05:55:56;29.85;;;16.58;;
1376;SDS011;682;52.502;13.488;2023-03-01T05:58:26;25.45;;;17.95;;
1376;SDS011;682;52.502;13.488;2023-03-01T06:00:53;21.90;;;15.52;;
1376;SDS011;682;52.502;13.488;2023-03-01T06:03:20;25.60;;;16.88;;
1376;SDS011;682;52.502;13.488;2023-03-01T06:05:55;25.40;;;15.63;;
1376;SDS011;682;52.502;13.488;2023-03-01T06:08:22;27.25;;;19.88;;
1376;SDS011;682;52.502;13.488;2023-03-01T06:10:51;25.58;;;17.60;;
1376;SDS011;682;52.502;13.488;2023-03-01T06:13:19;24.92;;;15.88;;
1376;SDS011;682;52.502;13.488;2023-03-01T06:15:46;30.10;;;18.95;;
1376;SDS011;682;52.502;13.488;2023-03-01T06:18:13;26.48;;;19.08;;
1376;SDS011;682;52.502;13.488;2023-03-01T06:20:42;28.80;;;18.75;;
1376;SDS011;682;52.502;13.488;2023-03-01T06:23:10;30.70;;;17.80;;
1376;SDS011;682;52.502;13.488;2023-03-01T06:25:38;27.80;;;18.85;;
1376;SDS011;682;52.502;13.488;2023-03-01T06:28:05;29.65;;;18.75;;
1376;SDS011;682;52.502;13.488;2023-03-01T06:30:32;29.83;;;20.90;;
1376;SDS011;682;52.502;13.488;2023-03-01T06:33:02;25.80;;;20.33;;
1376;SDS011;682;52.502;13.488;2023-03-01T06:35:30;25.05;;;18.83;;
1376;SDS011;682;52.502;13.488;2023-03-01T06:37:58;28.67;;;20.70;;
1376;SDS011;682;52.502;13.488;2023-03-01T06:40:28;27.50;;;20.50;;
1376;SDS011;682;52.502;13.488;2023-03-01T06:42:56;30.90;;;22.20;;
1376;SDS011;682;52.502;13.488;2023-03-01T06:45:26;29.70;;;21.70;;
1376;SDS011;682;52.502;13.488;2023-03-01T06:48:00;27.30;;;20.33;;
1376;SDS011;682;52.502;13.488;2023-03-01T06:50:28;27.80;;;21.55;;
1376;SDS011;682;52.502;13.488;2023-03-01T06:52:56;30.83;;;21.55;;
1376;SDS011;682;52.502;13.488;2023-03-01T06:55:24;35.83;;;24.60;;
1376;SDS011;682;52.502;13.488;2023-03-01T06:57:55;32.05;;;25.33;;
1376;SDS011;682;52.502;13.488;2023-03-01T07:00:23;28.67;;;20.90;;
1376;SDS011;682;52.502;13.488;2023-03-01T07:02:51;34.70;;;24.48;;
1376;SDS011;682;52.502;13.488;2023-03-01T07:05:19;28.63;;;19.67;;
1376;SDS011;682;52.502;13.488;2023-03-01T07:07:46;30.75;;;20.88;;
1376;SDS011;682;52.502;13.488;2023-03-01T07:10:15;27.50;;;18.17;;
1376;SDS011;682;52.502;13.488;2023-03-01T07:12:44;27.48;;;17.83;;
1376;SDS011;682;52.502;13.488;2023-03-01T07:15:13;29.95;;;21.08;;
1376;SDS011;682;52.502;13.488;2023-03-01T07:17:42;27.40;;;18.92;;
1376;SDS011;682;52.502;13.488;2023-03-01T07:20:20;37.13;;;23.50;;
1376;SDS011;682;52.502;13.488;2023-03-01T07:22:50;28.08;;;19.98;;
1376;SDS011;682;52.502;13.488;2023-03-01T07:25:17;30.50;;;22.42;;
1376;SDS011;682;52.502;13.488;2023-03-01T07:27:48;29.95;;;21.60;;
1376;SDS011;682;52.502;13.488;2023-03-01T07:30:18;30.45;;;21.98;;
1376;SDS011;682;52.502;13.488;2023-03-01T07:32:46;28.95;;;19.42;;
1376;SDS011;682;52.502;13.488;2023-03-01T07:35:15;29.65;;;20.42;;
1376;SDS011;682;52.502;13.488;2023-03-01T07:37:44;30.35;;;19.48;;
1376;SDS011;682;52.502;13.488;2023-03-01T07:40:11;26.70;;;19.35;;
1376;SDS011;682;52.502;13.488;2023-03-01T07:42:40;27.27;;;20.30;;
1376;SDS011;682;52.502;13.488;2023-03-01T07:45:09;27.83;;;19.48;;
1376;SDS011;682;52.502;13.488;2023-03-01T07:47:39;33.50;;;21.38;;
1376;SDS011;682;52.502;13.488;2023-03-01T07:50:07;40.97;;;23.10;;
1376;SDS011;682;52.502;13.488;2023-03-01T07:52:39;38.15;;;26.48;;
1376;SDS011;682;52.502;13.488;2023-03-01T07:55:06;30.35;;;21.05;;
1376;SDS011;682;52.502;13.488;2023-03-01T07:57:34;29.75;;;22.15;;
1376;SDS011;682;52.502;13.488;2023-03-01T08:00:01;35.28;;;23.83;;
1376;SDS011;682;52.502;13.488;2023-03-01T08:02:32;28.50;;;21.83;;
1376;SDS011;682;52.502;13.488;2023-03-01T08:05:00;31.50;;;22.08;;
1376;SDS011;682;52.502;13.488;2023-03-01T08:07:28;27.73;;;22.50;;
1376;SDS011;682;52.502;13.488;2023-03-01T08:09:55;30.23;;;22.23;;
1376;SDS011;682;52.502;13.488;2023-03-01T08:12:22;28.00;;;19.88;;
1376;SDS011;682;52.502;13.488;2023-03-01T08:14:52;27.60;;;19.38;;
1376;SDS011;682;52.502;13.488;2023-03-01T08:17:20;29.30;;;19.95;;
1376;SDS011;682;52.502;13.488;2023-03-01T08:19:47;30.30;;;20.02;;
1376;SDS011;682;52.502;13.488;2023-03-01T08:22:16;33.78;;;20.35;;
1376;SDS011;682;52.502;13.488;2023-03-01T08:24:44;37.47;;;20.30;;
1376;SDS011;682;52.502;13.488;2023-03-01T08:27:14;37.83;;;21.88;;
1376;SDS011;682;52.502;13.488;2023-03-01T08:29:42;28.63;;;17.17;;
1376;SDS011;682;52.502;13.488;2023-03-01T08:32:11;32.63;;;16.60;;
1376;SDS011;682;52.502;13.488;2023-03-01T08:34:39;20.02;;;14.68;;
1376;SDS011;682;52.502;13.488;2023-03-01T08:37:07;41.97;;;16.63;;
1376;SDS011;682;52.502;13.488;2023-03-01T08:39:36;30.98;;;18.27;;
1376;SDS011;682;52.502;13.488;2023-03-01T08:42:05;21.40;;;15.57;;
1376;SDS011;682;52.502;13.488;2023-03-01T08:44:32;34.63;;;18.50;;
1376;SDS011;682;52.502;13.488;2023-03-01T08:47:01;30.70;;;15.65;;
1376;SDS011;682;52.502;13.488;2023-03-01T08:49:29;27.65;;;14.80;;
1376;SDS011;682;52.502;13.488;2023-03-01T08:51:58;26.42;;;15.27;;
1376;SDS011;682;52.502;13.488;2023-03-01T08:54:26;42.00;;;18.05;;
1376;SDS011;682;52.502;13.488;2023-03-01T08:56:57;28.23;;;15.77;;
1376;SDS011;682;52.502;13.488;2023-03-01T08:59:26;21.35;;;11.98;;
1376;SDS011;682;52.502;13.488;2023-03-01T09:01:55;25.83;;;13.27;;
1376;SDS011;682;52.502;13.488;2023-03-01T09:04:23;14.77;;;9.87;;
1376;SDS011;682;52.502;13.488;2023-03-01T09:06:50;13.23;;;10.07;;
1376;SDS011;682;52.502;13.488;2023-03-01T09:09:20;13.60;;;10.80;;
1376;SDS011;682;52.502;13.488;2023-03-01T09:11:47;16.60;;;10.30;;
1376;SDS011;682;52.502;13.488;2023-03-01T09:14:17;16.30;;;9.60;;
1376;SDS011;682;52.502;13.488;2023-03-01T09:16:46;19.60;;;10.07;;
1376;SDS011;682;52.502;13.488;2023-03-01T09:19:16;14.83;;;9.37;;
1376;SDS011;682;52.502;13.488;2023-03-01T09:21:45;18.50;;;8.03;;
1376;SDS011;682;52.502;13.488;2023-03-01T09:24:18;11.57;;;7.80;;
1376;SDS011;682;52.502;13.488;2023-03-01T09:26:49;14.73;;;8.50;;
1376;SDS011;682;52.502;13.488;2023-03-01T09:29:17;13.63;;;7.70;;
1376;SDS011;682;52.502;13.488;2023-03-01T09:31:44;12.80;;;6.80;;
1376;SDS011;682;52.502;13.488;2023-03-01T09:34:11;18.90;;;9.13;;
1376;SDS011;682;52.502;13.488;2023-03-01T09:36:42;16.17;;;7.33;;
1376;SDS011;682;52.502;13.488;2023-03-01T09:39:09;11.20;;;7.10;;
1376;SDS011;682;52.502;13.488;2023-03-01T09:41:38;12.00;;;7.07;;
1376;SDS011;682;52.502;13.488;2023-03-01T09:44:15;14.77;;;7.47;;
1376;SDS011;682;52.502;13.488;2023-03-01T09:46:55;19.17;;;8.93;;
1376;SDS011;682;52.502;13.488;2023-03-01T09:49:23;22.67;;;9.07;;
1376;SDS011;682;52.502;13.488;2023-03-01T09:51:55;10.80;;;6.33;;
1376;SDS011;682;52.502;13.488;2023-03-01T09:54:26;14.97;;;7.87;;
1376;SDS011;682;52.502;13.488;2023-03-01T09:57:01;10.30;;;6.03;;
1376;SDS011;682;52.502;13.488;2023-03-01T09:59:39;10.23;;;6.37;;
1376;SDS011;682;52.502;13.488;2023-03-01T10:02:21;15.60;;;7.10;;
1376;SDS011;682;52.502;13.488;2023-03-01T10:04:53;15.13;;;7.80;;
1376;SDS011;682;52.502;13.488;2023-03-01T10:07:29;11.13;;;6.73;;
1376;SDS011;682;52.502;13.488;2023-03-01T10:10:04;10.90;;;6.53;;
1376;SDS011;682;52.502;13.488;2023-03-01T10:12:33;20.17;;;7.83;;
1376;SDS011;682;52.502;13.488;2023-03-01T10:15:05;8.70;;;5.47;;
1376;SDS011;682;52.502;13.488;2023-03-01T10:17:42;8.30;;;5.50;;
1376;SDS011;682;52.502;13.488;2023-03-01T10:20:18;15.63;;;6.53;;
1376;SDS011;682;52.502;13.488;2023-03-01T10:22:49;25.80;;;10.07;;
1376;SDS011;682;52.502;13.488;2023-03-01T10:25:21;12.80;;;7.33;;
1376;SDS011;682;52.502;13.488;2023-03-01T10:28:00;10.73;;;6.60;;
1376;SDS011;682;52.502;13.488;2023-03-01T10:30:34;16.30;;;8.57;;
1376;SDS011;682;52.502;13.488;2023-03-01T10:33:05;13.83;;;7.43;;
1376;SDS011;682;52.502;13.488;2023-03-01T10:35:43;12.80;;;6.40;;
1376;SDS011;682;52.502;13.488;2023-03-01T10:38:11;8.57;;;5.97;;
1376;SDS011;682;52.502;13.488;2023-03-01T10:40:49;10.13;;;6.40;;
1376;SDS011;682;52.502;13.488;2023-03-01T10:43:17;14.30;;;7.53;;
1376;SDS011;682;52.502;13.488;2023-03-01T10:45:48;13.43;;;6.03;;
1376;SDS011;682;52.502;13.488;2023-03-01T10:48:19;10.30;;;5.17;;
1376;SDS011;682;52.502;13.488;2023-03-01T10:50:50;8.10;;;5.10;;
1376;SDS011;682;52.502;13.488;2023-03-01T10:53:32;7.47;;;4.70;;
1376;SDS011;682;52.502;13.488;2023-03-01T10:56:01;7.77;;;4.80;;
1376;SDS011;682;52.502;13.488;2023-03-01T10:58:30;7.83;;;4.87;;
1376;SDS011;682;52.502;13.488;2023-03-01T11:01:00;8.57;;;4.87;;
1376;SDS011;682;52.502;13.488;2023-03-01T11:03:30;10.03;;;6.13;;
1376;SDS011;682;52.502;13.488;2023-03-01T11:06:02;9.00;;;4.47;;
1376;SDS011;682;52.502;13.488;2023-03-01T11:08:38;8.47;;;4.63;;
1376;SDS011;682;52.502;13.488;2023-03-01T11:11:12;9.97;;;4.90;;
1376;SDS011;682;52.502;13.488;2023-03-01T11:16:38;85.20;;;77.63;;
1376;SDS011;682;52.502;13.488;2023-03-01T11:19:17;7.80;;;4.83;;
1376;SDS011;682;52.502;13.488;2023-03-01T11:21:52;10.13;;;7.13;;
1376;SDS011;682;52.502;13.488;2023-03-01T11:24:26;12.20;;;6.90;;
1376;SDS011;682;52.502;13.488;2023-03-01T11:26:59;15.13;;;5.40;;
1376;SDS011;682;52.502;13.488;2023-03-01T11:29:30;7.30;;;4.40;;
1376;SDS011;682;52.502;13.488;2023-03-01T11:32:05;12.70;;;5.80;;
1376;SDS011;682;52.502;13.488;2023-03-01T11:34:38;12.40;;;5.00;;
1376;SDS011;682;52.502;13.488;2023-03-01T11:37:11;8.30;;;4.80;;
1376;SDS011;682;52.502;13.488;2023-03-01T11:39:51;6.17;;;4.13;;
1376;SDS011;682;52.502;13.488;2023-03-01T11:42:27;9.23;;;4.80;;
1376;SDS011;682;52.502;13.488;2023-03-01T11:45:06;9.20;;;5.43;;
1376;SDS011;682;52.502;13.488;2023-03-01T11:47:42;13.83;;;5.30;;
1376;SDS011;682;52.502;13.488;2023-03-01T11:50:26;5.00;;;3.50;;
1376;SDS011;682;52.502;13.488;2023-03-01T11:53:00;6.83;;;3.90;;
1376;SDS011;682;52.502;13.488;2023-03-01T11:55:51;7.10;;;3.50;;
1376;SDS011;682;52.502;13.488;2023-03-01T11:58:35;6.80;;;3.60;;
1376;SDS011;682;52.502;13.488;2023-03-01T12:07:17;9.43;;;4.27;;
1376;SDS011;682;52.502;13.488;2023-03-01T12:09:57;6.37;;;4.27;;
1376;SDS011;682;52.502;13.488;2023-03-01T12:12:43;5.90;;;4.23;;
1376;SDS011;682;52.502;13.488;2023-03-01T12:21:14;7.17;;;3.50;;
1376;SDS011;682;52.502;13.488;2023-03-01T12:24:17;6.63;;;3.00;;
1376;SDS011;682;52.502;13.488;2023-03-01T12:26:55;7.17;;;4.27;;
1376;SDS011;682;52.502;13.488;2023-03-01T12:29:39;10.17;;;4.83;;
1376;SDS011;682;52.502;13.488;2023-03-01T12:35:20;9.30;;;4.40;;
1376;SDS011;682;52.502;13.488;2023-03-01T12:38:01;11.13;;;4.03;;
1376;SDS011;682;52.502;13.488;2023-03-01T12:40:47;6.77;;;4.50;;
1376;SDS011;682;52.502;13.488;2023-03-01T12:43:36;8.27;;;4.67;;
1376;SDS011;682;52.502;13.488;2023-03-01T12:46:24;8.77;;;4.33;;
1376;SDS011;682;52.502;13.488;2023-03-01T12:49:05;11.33;;;3.97;;
1376;SDS011;682;52.502;13.488;2023-03-01T12:51:38;7.37;;;3.77;;
1376;SDS011;682;52.502;13.488;2023-03-01T12:54:16;8.20;;;3.93;;
1376;SDS011;682;52.502;13.488;2023-03-01T12:56:49;7.83;;;4.50;;
1376;SDS011;682;52.502;13.488;2023-03-01T12:59:18;5.03;;;3.20;;
1376;SDS011;682;52.502;13.488;2023-03-01T13:01:52;6.70;;;4.10;;
1376;SDS011;682;52.502;13.488;2023-03-01T13:04:31;7.00;;;3.63;;
1376;SDS011;682;52.502;13.488;2023-03-01T13:07:23;11.30;;;5.10;;
1376;SDS011;682;52.502;13.488;2023-03-01T13:10:02;10.63;;;4.90;;
1376;SDS011;682;52.502;13.488;2023-03-01T13:12:46;6.00;;;4.33;;
1376;SDS011;682;52.502;13.488;2023-03-01T13:15:25;5.63;;;3.20;;
1376;SDS011;682;52.502;13.488;2023-03-01T13:17:57;7.73;;;3.40;;
1376;SDS011;682;52.502;13.488;2023-03-01T13:20:25;5.00;;;3.07;;
1376;SDS011;682;52.502;13.488;2023-03-01T13:23:06;8.03;;;3.10;;
1376;SDS011;682;52.502;13.488;2023-03-01T13:25:37;6.03;;;2.80;;
1376;SDS011;682;52.502;13.488;2023-03-01T13:37:31;11.60;;;4.47;;
1376;SDS011;682;52.502;13.488;2023-03-01T13:43:29;8.80;;;5.27;;
1376;SDS011;682;52.502;13.488;2023-03-01T13:45:59;6.63;;;3.50;;
1376;SDS011;682;52.502;13.488;2023-03-01T13:48:29;8.07;;;3.90;;
1376;SDS011;682;52.502;13.488;2023-03-01T13:51:04;4.87;;;3.67;;
1376;SDS011;682;52.502;13.488;2023-03-01T13:53:35;7.00;;;4.90;;
1376;SDS011;682;52.502;13.488;2023-03-01T13:56:07;5.57;;;3.47;;
1376;SDS011;682;52.502;13.488;2023-03-01T13:58:49;6.60;;;4.23;;
1376;SDS011;682;52.502;13.488;2023-03-01T14:01:26;9.03;;;4.30;;
1376;SDS011;682;52.502;13.488;2023-03-01T14:03:54;6.00;;;3.77;;
1376;SDS011;682;52.502;13.488;2023-03-01T14:06:25;12.30;;;5.30;;
1376;SDS011;682;52.502;13.488;2023-03-01T14:09:00;11.50;;;6.80;;
1376;SDS011;682;52.502;13.488;2023-03-01T14:11:48;12.07;;;4.80;;
1376;SDS011;682;52.502;13.488;2023-03-01T14:17:28;6.57;;;3.90;;
1376;SDS011;682;52.502;13.488;2023-03-01T14:20:11;10.80;;;4.73;;
1376;SDS011;682;52.502;13.488;2023-03-01T14:22:46;11.37;;;3.87;;
1376;SDS011;682;52.502;13.488;2023-03-01T14:25:21;10.97;;;5.63;;
1376;SDS011;682;52.502;13.488;2023-03-01T14:27:56;8.20;;;4.53;;
1376;SDS011;682;52.502;13.488;2023-03-01T14:30:31;6.93;;;3.60;;
1376;SDS011;682;52.502;13.488;2023-03-01T14:33:03;10.60;;;6.07;;
1376;SDS011;682;52.502;13.488;2023-03-01T14:35:38;5.63;;;3.63;;
1376;SDS011;682;52.502;13.488;2023-03-01T14:38:19;7.97;;;3.90;;
1376;SDS011;682;52.502;13.488;2023-03-01T14:40:47;7.33;;;4.23;;
1376;SDS011;682;52.502;13.488;2023-03-01T14:43:20;9.13;;;4.33;;
1376;SDS011;682;52.502;13.488;2023-03-01T14:45:57;8.10;;;4.47;;
1376;SDS011;682;52.502;13.488;2023-03-01T14:48:24;9.00;;;4.13;;
1376;SDS011;682;52.502;13.488;2023-03-01T14:50:54;8.93;;;4.60;;
1376;SDS011;682;52.502;13.488;2023-03-01T14:53:24;6.70;;;4.00;;
1376;SDS011;682;52.502;13.488;2023-03-01T14:55:53;9.17;;;4.30;;
1376;SDS011;682;52.502;13.488;2023-03-01T14:58:22;8.10;;;3.80;;
1376;SDS011;682;52.502;13.488;2023-03-01T15:00:52;9.13;;;4.07;;
1376;SDS011;682;52.502;13.488;2023-03-01T15:03:24;8.70;;;4.57;;
1376;SDS011;682;52.502;13.488;2023-03-01T15:05:53;6.20;;;3.47;;
1376;SDS011;682;52.502;13.488;2023-03-01T15:08:22;9.40;;;3.87;;
1376;SDS011;682;52.502;13.488;2023-03-01T15:11:01;11.70;;;4.23;;
1376;SDS011;682;52.502;13.488;2023-03-01T15:13:32;8.73;;;3.93;;
1376;SDS011;682;52.502;13.488;2023-03-01T15:16:06;14.17;;;3.83;;
1376;SDS011;682;52.502;13.488;2023-03-01T15:18:45;6.83;;;3.63;;
1376;SDS011;682;52.502;13.488;2023-03-01T15:21:16;10.20;;;3.77;;
1376;SDS011;682;52.502;13.488;2023-03-01T15:23:47;11.10;;;4.10;;
1376;SDS011;682;52.502;13.488;2023-03-01T15:26:25;11.07;;;3.80;;
1376;SDS011;682;52.502;13.488;2023-03-01T15:28:58;7.43;;;4.13;;
1376;SDS011;682;52.502;13.488;2023-03-01T15:31:31;6.63;;;2.83;;
1376;SDS011;682;52.502;13.488;2023-03-01T15:34:08;10.70;;;3.60;;
1376;SDS011;682;52.502;13.488;2023-03-01T15:36:46;8.33;;;4.00;;
1376;SDS011;682;52.502;13.488;2023-03-01T15:39:26;8.87;;;3.30;;
1376;SDS011;682;52.502;13.488;2023-03-01T15:41:58;8.07;;;3.30;;
1376;SDS011;682;52.502;13.488;2023-03-01T15:44:27;6.57;;;3.27;;
1376;SDS011;682;52.502;13.488;2023-03-01T15:46:58;11.13;;;5.53;;
1376;SDS011;682;52.502;13.488;2023-03-01T15:49:27;8.60;;;4.53;;
1376;SDS011;682;52.502;13.488;2023-03-01T15:52:01;6.67;;;3.23;;
1376;SDS011;682;52.502;13.488;2023-03-01T15:54:31;7.97;;;3.60;;